Creighton, NE (68729)

2:51 PM CST on February 10, 2016 (GMT -0600)
Ewing | | Change Station
CLOSE
Current Station
Personal Weather Station
Location: Ewing, NE
Elevation: 1929 ft
Nearby Weather Stations

Elev 1929 ft 42.24 °N, 98.24 °W | Updated 1 minute ago

Clear
Clear
37.3 °F
Feels Like 31 °F
N
8.0
Wind Variable Wind from ENE
Gusts 12.0 mph

Today
High -- | Low -- °F
--% Chance of Precip.
Yesterday
High -- | Low -- °F
Precip. -- in
Pressure 29.83 in
Visibility 10.0 miles
Clouds Clear
Windchill 31 °F
Dew Point 30 °F
Humidity 76%
Rainfall 0.00 in
Snow Depth Not available.
7:35 AM 5:56 PM
Waxing Crescent, 7% visible
METAR KONL 102035Z AUTO 07008KT 10SM CLR 08/00 A2983 RMK AO2 T00830000
Pressure 29.83 in
Visibility 10.0 miles
Clouds Clear
Windchill 31 °F
Dew Point 30 °F
Humidity 76%
Rainfall 0.00 in
Snow Depth Not available.
7:35 AM 5:56 PM
Waxing Crescent, 7% visible
METAR KONL 102035Z AUTO 07008KT 10SM CLR 08/00 A2983 RMK AO2 T00830000

10-Day Weather Forecast

Almanac

Astronomy

Feb. 10, 2016 Rise Set
Actual Time
Civil Twilight
Nautical Twilight
Astronomical Twilight
Moon
Length of Visible Light
Length of Day
Tomorrow will be .
, % of the Moon is Illuminated

Today's Extremes

State Highs State Lows

Community

WunderPhotos

Upload Photos

1,891,945 photos uploaded!

WunderBlog® & News

Nearby

Air Quality

  Air Quality AQ Index Pollutant
Not available.

Snow Depth

Station Depth Elevation

Earthquake Activity

City Distance Mag. Time & Date
Minimum magnitude displayed is 2.5.

Coastal Water Temperatures

Place Temperature

Stations

Nearby Weather Stations

Station Location Temp. Windchill Dew Point Humidity Wind Precip. Elev Updated Type
                   

Watches & Warnings

There are currently no watches in effect.